createdAt,value
2022-09-29T00:02:01.004Z,4.9
2022-09-29T00:03:00.952Z,4.8
2022-09-29T00:05:00.983Z,4.7
2022-09-29T00:07:00.938Z,4.8
2022-09-29T00:09:00.954Z,4.9
2022-09-29T00:12:01.026Z,4.7
2022-09-29T00:14:00.925Z,4.8
2022-09-29T00:16:00.986Z,4.7
2022-09-29T00:20:00.999Z,4.6
2022-09-29T00:22:00.972Z,4.6
2022-09-29T00:24:00.915Z,4.7
2022-09-29T00:25:00.957Z,4.6
2022-09-29T00:27:00.964Z,4.7
2022-09-29T00:30:00.945Z,4.6
2022-09-29T00:32:01.006Z,4.5
2022-09-29T00:33:01.029Z,4.6
2022-09-29T00:35:00.908Z,4.7
2022-09-29T00:37:00.909Z,4.7
2022-09-29T00:38:00.891Z,4.6
2022-09-29T00:39:00.951Z,4.5
2022-09-29T00:40:00.905Z,4.7
2022-09-29T00:42:00.924Z,4.7
2022-09-29T00:44:00.940Z,4.6
2022-09-29T00:45:00.979Z,4.8
2022-09-29T00:47:00.916Z,4.7
2022-09-29T00:48:00.897Z,4.8
2022-09-29T00:49:00.944Z,4.9
2022-09-29T00:51:00.939Z,4.9
2022-09-29T00:55:00.915Z,5
2022-09-29T00:58:00.885Z,4.9
2022-09-29T00:59:00.909Z,5
2022-09-29T01:00:00.936Z,5.1
2022-09-29T01:03:01.046Z,5.1
2022-09-29T01:05:00.921Z,5
2022-09-29T01:09:00.958Z,4.9
2022-09-29T01:11:00.941Z,4.9
2022-09-29T01:13:00.965Z,5.1
2022-09-29T01:16:00.927Z,4.9
2022-09-29T01:17:00.943Z,5.1
2022-09-29T01:19:01.001Z,5.1
2022-09-29T01:21:00.922Z,5
2022-09-29T01:23:00.948Z,5.1
2022-09-29T01:25:00.913Z,5.1
2022-09-29T01:27:00.903Z,5.2
2022-09-29T01:28:00.937Z,5.3
2022-09-29T01:30:00.957Z,5.4
2022-09-29T01:31:01.035Z,5.3
2022-09-29T01:35:00.974Z,5.5
2022-09-29T01:38:00.911Z,5.6
2022-09-29T01:42:00.960Z,5.5
2022-09-29T01:46:00.965Z,5.7
2022-09-29T01:48:00.925Z,5.7
2022-09-29T01:50:00.950Z,5.8
2022-09-29T01:52:00.950Z,5.9
2022-09-29T01:53:00.952Z,5.8
2022-09-29T01:56:00.961Z,5.9
2022-09-29T01:58:00.898Z,5.8
2022-09-29T01:59:00.928Z,5.9
2022-09-29T02:01:00.985Z,5.8
2022-09-29T02:02:01.151Z,6
2022-09-29T02:05:00.921Z,6.1
2022-09-29T02:06:00.917Z,5.9
2022-09-29T02:08:00.935Z,6
2022-09-29T02:11:00.914Z,5.9
2022-09-29T02:14:00.923Z,6
2022-09-29T02:15:00.921Z,5.8
2022-09-29T02:18:00.932Z,5.7
2022-09-29T02:26:00.960Z,5.9
2022-09-29T02:28:00.979Z,5.6
2022-09-29T02:30:00.956Z,5.6
2022-09-29T02:32:00.954Z,5.7
2022-09-29T02:34:00.949Z,5.6
2022-09-29T02:37:00.908Z,5.6
2022-09-29T02:39:00.978Z,5.5
2022-09-29T02:42:00.935Z,5.6
2022-09-29T02:45:00.917Z,5.5
2022-09-29T02:59:00.932Z,5.7
2022-09-29T03:01:00.999Z,5.6
2022-09-29T03:02:00.930Z,5.7
2022-09-29T03:03:00.939Z,5.5
2022-09-29T03:07:00.917Z,5.7
2022-09-29T03:08:00.939Z,5.6
2022-09-29T03:09:00.933Z,5.7
2022-09-29T03:11:00.949Z,5.7
2022-09-29T03:13:00.891Z,5.7
2022-09-29T03:20:00.893Z,5.8
2022-09-29T03:22:00.942Z,5.7
2022-09-29T03:24:00.906Z,5.7
2022-09-29T03:26:00.937Z,5.8
2022-09-29T03:29:00.925Z,5.9
2022-09-29T03:30:01.082Z,5.9
2022-09-29T03:32:00.937Z,5.9
2022-09-29T03:33:00.970Z,5.8
2022-09-29T03:40:00.930Z,5.7
2022-09-29T03:41:01.018Z,5.9
2022-09-29T03:42:01.028Z,5.8
2022-09-29T03:44:00.927Z,5.9
2022-09-29T03:45:00.978Z,5.8
2022-09-29T03:48:00.936Z,5.7
2022-09-29T03:50:00.908Z,5.8
2022-09-29T03:51:00.904Z,5.7
2022-09-29T03:53:01.111Z,5.7
2022-09-29T03:55:00.891Z,5.8
2022-09-29T03:58:00.915Z,5.7
2022-09-29T04:00:00.961Z,5.8
2022-09-29T04:03:00.903Z,5.6
2022-09-29T04:05:00.918Z,5.7
2022-09-29T04:08:00.966Z,5.6
2022-09-29T04:09:00.944Z,5.8
2022-09-29T04:10:00.964Z,5.7
2022-09-29T04:11:00.977Z,5.6
2022-09-29T04:13:00.902Z,5.7
2022-09-29T04:14:00.940Z,5.4
2022-09-29T04:15:00.990Z,5.6
2022-09-29T04:18:00.985Z,5.5
2022-09-29T04:19:01.000Z,5.6
2022-09-29T04:21:00.977Z,5.7
2022-09-29T04:22:00.912Z,5.6
2022-09-29T04:24:00.914Z,5.7
2022-09-29T04:25:00.914Z,5.5
2022-09-29T04:26:00.899Z,5.6
2022-09-29T04:31:00.904Z,5.7
2022-09-29T04:32:00.967Z,5.5
2022-09-29T04:33:00.924Z,5.6
2022-09-29T04:34:01.010Z,5.5
2022-09-29T04:37:00.913Z,5.5
2022-09-29T04:38:00.979Z,5.6
2022-09-29T04:45:00.947Z,5.5
2022-09-29T04:47:00.947Z,5.6
2022-09-29T04:52:00.974Z,5.7
2022-09-29T04:53:01.041Z,5.6
2022-09-29T04:55:00.916Z,5.7
2022-09-29T04:57:00.979Z,5.8
2022-09-29T04:59:00.933Z,5.6
2022-09-29T05:00:00.967Z,5.7
2022-09-29T05:01:01.032Z,5.6
2022-09-29T05:04:00.947Z,5.8
2022-09-29T05:09:00.984Z,5.7
2022-09-29T05:10:01.016Z,5.9
2022-09-29T05:12:01.103Z,5.9
2022-09-29T05:16:01.039Z,5.8
2022-09-29T05:18:00.970Z,5.9
2022-09-29T05:19:01.007Z,6
2022-09-29T05:21:23.145Z,6
2022-09-29T05:24:01.014Z,6.1
2022-09-29T05:29:01.112Z,6
2022-09-29T05:30:01.146Z,6.1
2022-09-29T05:33:01.157Z,6.1
2022-09-29T05:37:01.126Z,6.2
2022-09-29T05:38:01.093Z,6.1
2022-09-29T05:40:00.986Z,6.1
2022-09-29T05:42:00.931Z,6.2
2022-09-29T05:44:00.909Z,6.3
2022-09-29T05:45:00.919Z,6.4
2022-09-29T05:52:00.915Z,6.3
2022-09-29T05:53:00.911Z,6.5
2022-09-29T05:54:00.932Z,6.4
2022-09-29T05:55:00.914Z,6.5
2022-09-29T05:56:00.982Z,6.3
2022-09-29T05:58:00.965Z,6.4
2022-09-29T06:00:00.957Z,6.6
2022-09-29T06:02:01.130Z,6.4
2022-09-29T06:04:00.918Z,6.5
2022-09-29T06:05:00.934Z,6.6
2022-09-29T06:06:00.951Z,6.7
2022-09-29T06:08:00.903Z,6.7
2022-09-29T06:09:00.929Z,6.8
2022-09-29T06:10:00.937Z,6.9
2022-09-29T06:11:00.951Z,7
2022-09-29T06:14:00.913Z,7.1
2022-09-29T06:15:00.976Z,7.3
2022-09-29T06:17:00.927Z,8
2022-09-29T06:18:00.947Z,8.1
2022-09-29T06:24:00.884Z,8.3
2022-09-29T06:25:00.960Z,7.9
2022-09-29T06:26:01.054Z,8
2022-09-29T06:28:01.008Z,7.9
2022-09-29T06:30:01.067Z,7.9
2022-09-29T06:32:01.082Z,7.8
2022-09-29T06:34:00.967Z,7.9
2022-09-29T06:38:00.946Z,7.9
2022-09-29T06:39:01.032Z,8
2022-09-29T06:41:00.986Z,8
2022-09-29T06:44:00.922Z,8.1
2022-09-29T06:46:01.016Z,8
2022-09-29T06:47:00.917Z,8.2
2022-09-29T06:48:01.011Z,8.1
2022-09-29T06:55:00.924Z,8.3
2022-09-29T06:56:00.952Z,8.4
2022-09-29T06:58:03.948Z,8.2
2022-09-29T07:00:00.971Z,8.4
2022-09-29T07:04:00.891Z,8.5
2022-09-29T07:05:00.891Z,8.4
2022-09-29T07:06:19.574Z,8.5
2022-09-29T07:08:01.376Z,8.5
2022-09-29T07:09:00.934Z,8.4
2022-09-29T07:11:00.897Z,8.6
2022-09-29T07:12:00.977Z,8.7
2022-09-29T07:16:00.955Z,8.5
2022-09-29T07:18:00.909Z,8.5
2022-09-29T07:19:00.907Z,8.7
2022-09-29T07:20:00.933Z,8.6
2022-09-29T07:21:00.915Z,8.5
2022-09-29T07:23:00.917Z,8.5
2022-09-29T07:24:02.253Z,8.6
2022-09-29T07:25:00.927Z,8.7
2022-09-29T07:26:00.897Z,8.8
2022-09-29T07:29:00.911Z,8.7
2022-09-29T07:33:02.465Z,8.8
2022-09-29T07:34:01.123Z,8.9
2022-09-29T07:36:00.919Z,8.9
2022-09-29T07:37:00.900Z,8.8
2022-09-29T07:39:00.917Z,8.7
2022-09-29T07:40:01.023Z,9
2022-09-29T07:42:00.955Z,8.9
2022-09-29T07:43:00.949Z,9
2022-09-29T07:46:00.979Z,9.1
2022-09-29T07:50:00.920Z,9.2
2022-09-29T07:51:00.930Z,9
2022-09-29T07:52:00.935Z,9.2
2022-09-29T07:54:00.939Z,9.3
2022-09-29T07:56:00.922Z,9.4
2022-09-29T07:58:00.920Z,9.3
2022-09-29T07:59:00.944Z,9.5
2022-09-29T08:01:00.952Z,9.4
2022-09-29T08:02:00.955Z,9.5
2022-09-29T08:05:04.343Z,9.7
2022-09-29T08:06:00.943Z,9.6
2022-09-29T08:07:00.994Z,9.7
2022-09-29T08:09:03.916Z,9.9
2022-09-29T08:11:00.897Z,10.1
2022-09-29T08:12:07.396Z,10
2022-09-29T08:13:00.906Z,10.2
2022-09-29T08:15:00.891Z,10.3
2022-09-29T08:18:00.947Z,10.4
2022-09-29T08:21:02.872Z,10.7
2022-09-29T08:23:00.900Z,10.8
2022-09-29T08:24:00.895Z,11
2022-09-29T08:27:08.629Z,11.2
2022-09-29T08:29:07.372Z,11.1
2022-09-29T08:30:00.942Z,11.2
2022-09-29T08:32:01.063Z,11.1
2022-09-29T08:35:00.899Z,11.3
2022-09-29T08:36:00.991Z,11.5
2022-09-29T08:41:00.927Z,11.7
2022-09-29T08:43:00.946Z,11.9
2022-09-29T08:45:08.278Z,12
2022-09-29T08:48:01.795Z,12.1
2022-09-29T08:50:00.938Z,12.1
2022-09-29T08:51:00.968Z,12.2
2022-09-29T08:53:00.919Z,12.2
2022-09-29T08:56:00.955Z,12.1
2022-09-29T08:58:00.981Z,12.4
2022-09-29T09:00:00.923Z,12.3
2022-09-29T09:02:00.925Z,12.7
2022-09-29T09:04:00.901Z,12.8
2022-09-29T09:06:00.938Z,13
2022-09-29T09:08:02.058Z,13.1
2022-09-29T09:10:00.948Z,13.3
2022-09-29T09:13:00.903Z,13.5
2022-09-29T09:16:00.917Z,13.6
2022-09-29T09:17:00.943Z,13.7
2022-09-29T09:20:00.928Z,13.8
2022-09-29T09:21:00.932Z,13.7
2022-09-29T09:22:00.933Z,13.8
2022-09-29T09:24:01.105Z,13.9
2022-09-29T09:26:00.958Z,13.9
2022-09-29T09:27:00.962Z,14.1
2022-09-29T09:29:00.921Z,14.3
2022-09-29T09:30:00.971Z,14.4
2022-09-29T09:31:00.979Z,14.5
2022-09-29T09:34:05.422Z,14.7
2022-09-29T09:35:10.800Z,14.6
2022-09-29T09:36:00.960Z,14.9
2022-09-29T09:37:06.379Z,15
2022-09-29T09:39:00.975Z,14.7
2022-09-29T09:41:00.930Z,14.8
2022-09-29T09:43:00.927Z,14.8
2022-09-29T09:44:00.905Z,14.7
2022-09-29T09:46:00.977Z,14.7
2022-09-29T09:48:00.937Z,15
2022-09-29T09:50:00.960Z,14.9
2022-09-29T09:53:00.908Z,15.2
2022-09-29T09:54:00.976Z,15.4
2022-09-29T09:58:00.954Z,15.6
2022-09-29T10:00:00.996Z,15.5
2022-09-29T10:01:01.078Z,15.6
2022-09-29T10:03:00.942Z,15.7
2022-09-29T10:05:00.891Z,15.9
2022-09-29T10:08:00.899Z,16
2022-09-29T10:09:00.960Z,16.1
2022-09-29T10:10:00.980Z,16
2022-09-29T10:13:00.951Z,15.8
2022-09-29T10:15:00.913Z,15.8
2022-09-29T10:16:00.936Z,15.6
2022-09-29T10:17:00.968Z,15.7
2022-09-29T10:19:00.986Z,15.7
2022-09-29T10:22:00.901Z,16.1
2022-09-29T10:23:00.902Z,16.2
2022-09-29T10:24:00.936Z,16.4
2022-09-29T10:27:00.994Z,16.5
2022-09-29T10:31:00.993Z,16.6
2022-09-29T10:35:00.891Z,16.4
2022-09-29T10:36:00.968Z,16.3
2022-09-29T10:39:03.194Z,16.6
2022-09-29T10:41:00.938Z,16.5
2022-09-29T10:43:00.997Z,16.6
2022-09-29T10:45:00.914Z,16.4
2022-09-29T10:46:00.990Z,16.3
2022-09-29T10:48:00.964Z,16.1
2022-09-29T10:52:00.924Z,15.9
2022-09-29T10:53:00.908Z,15.8
2022-09-29T10:54:00.963Z,15.9
2022-09-29T10:56:00.919Z,16.3
2022-09-29T10:58:00.908Z,16.6
2022-09-29T10:59:04.640Z,16.7
2022-09-29T11:01:00.961Z,16.6
2022-09-29T11:05:00.975Z,16.5
2022-09-29T11:08:00.995Z,16.7
2022-09-29T11:10:00.941Z,16.9
2022-09-29T11:12:02.386Z,17.3
2022-09-29T11:14:00.944Z,17.6
2022-09-29T11:15:00.940Z,17.8
2022-09-29T11:16:00.965Z,18
2022-09-29T11:18:00.991Z,17.8
2022-09-29T11:20:00.905Z,17.6
2022-09-29T11:22:00.907Z,17.3
2022-09-29T11:23:00.936Z,17.1
2022-09-29T11:24:00.935Z,16.8
2022-09-29T11:26:00.988Z,16.5
2022-09-29T11:28:00.956Z,16.2
2022-09-29T11:29:00.992Z,16
2022-09-29T11:30:00.990Z,15.8
2022-09-29T11:32:00.967Z,15.8
2022-09-29T11:35:00.962Z,15.9
2022-09-29T11:38:00.935Z,15.6
2022-09-29T11:40:00.961Z,15.5
2022-09-29T11:41:00.954Z,15.6
2022-09-29T11:42:00.974Z,15.5
2022-09-29T11:45:00.927Z,15.8
2022-09-29T11:47:00.959Z,15.9
2022-09-29T11:48:00.975Z,16
2022-09-29T11:50:00.990Z,16.1
2022-09-29T11:52:00.962Z,16.3
2022-09-29T11:54:03.782Z,16.2
2022-09-29T11:56:01.010Z,16
2022-09-29T11:58:00.926Z,15.8
2022-09-29T12:00:00.958Z,15.7
2022-09-29T12:04:00.964Z,15.5
2022-09-29T12:07:00.933Z,15.6
2022-09-29T12:09:01.056Z,15.5
2022-09-29T12:10:00.971Z,15.6
2022-09-29T12:13:00.970Z,15.7
2022-09-29T12:15:01.058Z,15.7
2022-09-29T12:17:00.993Z,15.7
2022-09-29T12:19:00.976Z,15.6
2022-09-29T12:20:00.975Z,15.7
2022-09-29T12:21:01.002Z,15.8
2022-09-29T12:23:00.917Z,15.7
2022-09-29T12:24:00.918Z,15.6
2022-09-29T12:27:00.931Z,15.3
2022-09-29T12:29:00.913Z,15.1
2022-09-29T12:31:01.031Z,15
2022-09-29T12:33:00.958Z,14.8
2022-09-29T12:37:00.939Z,14.7
2022-09-29T12:40:00.920Z,14.6
2022-09-29T12:42:00.967Z,14.6
2022-09-29T12:45:00.910Z,14.6
2022-09-29T12:46:00.952Z,14.5
2022-09-29T12:47:00.938Z,14.4
2022-09-29T12:48:00.932Z,14.6
2022-09-29T12:49:00.927Z,14.7
2022-09-29T12:50:00.939Z,14.6
2022-09-29T12:51:00.936Z,14.7
2022-09-29T12:54:00.928Z,14.8
2022-09-29T12:55:00.970Z,14.7
2022-09-29T12:58:00.969Z,14.7
2022-09-29T13:00:00.950Z,14.6
2022-09-29T13:03:00.997Z,14.3
2022-09-29T13:06:00.964Z,14.5
2022-09-29T13:08:00.908Z,14.3
2022-09-29T13:09:00.976Z,14.5
2022-09-29T13:11:00.910Z,14.5
2022-09-29T13:13:00.914Z,14.7
2022-09-29T13:14:01.089Z,14.5
2022-09-29T13:20:01.153Z,14.4
2022-09-29T13:22:00.921Z,14.3
2022-09-29T13:23:00.973Z,14.2
2022-09-29T13:25:00.905Z,14.2
2022-09-29T13:26:00.939Z,14.1
2022-09-29T13:31:01.027Z,13.8
2022-09-29T13:34:00.977Z,13.5
2022-09-29T13:41:00.954Z,13.4
2022-09-29T13:43:00.915Z,13.6
2022-09-29T13:45:00.943Z,13.5
2022-09-29T13:47:00.903Z,13.4
2022-09-29T13:50:00.926Z,13.2
2022-09-29T13:52:00.964Z,13.3
2022-09-29T13:54:01.033Z,13.4
2022-09-29T13:59:00.901Z,13.5
2022-09-29T14:00:00.946Z,13.3
2022-09-29T14:01:01.004Z,13.5
2022-09-29T14:03:00.906Z,13.8
2022-09-29T14:05:00.975Z,13.7
2022-09-29T14:07:00.907Z,13.7
2022-09-29T14:10:00.913Z,13.8
2022-09-29T14:11:00.945Z,13.6
2022-09-29T14:13:00.908Z,13.6
2022-09-29T14:14:00.924Z,13.5
2022-09-29T14:16:00.990Z,13.6
2022-09-29T14:18:00.887Z,13.7
2022-09-29T14:19:00.993Z,13.6
2022-09-29T14:21:00.926Z,13.7
2022-09-29T14:23:00.895Z,13.8
2022-09-29T14:24:00.977Z,13.7
2022-09-29T14:25:00.925Z,13.8
2022-09-29T14:30:00.971Z,13.8
2022-09-29T14:32:01.011Z,13.6
2022-09-29T14:34:00.950Z,13.3
2022-09-29T14:37:00.922Z,13.2
2022-09-29T14:38:00.908Z,13.1
2022-09-29T14:39:24.994Z,13.3
2022-09-29T14:40:02.246Z,13.2
2022-09-29T14:42:00.965Z,13.1
2022-09-29T14:45:00.912Z,13.1
2022-09-29T14:46:00.971Z,13.2
2022-09-29T14:47:00.983Z,13.3
2022-09-29T14:49:00.896Z,13.1
2022-09-29T14:53:00.912Z,13
2022-09-29T14:54:00.941Z,12.9
2022-09-29T14:57:00.901Z,12.7
2022-09-29T14:58:00.904Z,12.6
2022-09-29T15:00:00.898Z,12.5
2022-09-29T15:01:00.899Z,12.7
2022-09-29T15:02:00.927Z,12.6
2022-09-29T15:03:16.807Z,12.5
2022-09-29T15:04:00.988Z,12.6
2022-09-29T15:10:00.955Z,12.8
2022-09-29T15:13:00.950Z,12.5
2022-09-29T15:14:00.949Z,12.6
2022-09-29T15:17:00.914Z,12.5
2022-09-29T15:18:00.895Z,12.6
2022-09-29T15:21:00.953Z,12.5
2022-09-29T15:26:01.179Z,12.4
2022-09-29T15:27:00.904Z,12.5
2022-09-29T15:28:00.904Z,12.4
2022-09-29T15:30:00.944Z,12.4
2022-09-29T15:31:01.033Z,12.3
2022-09-29T15:32:00.980Z,12.4
2022-09-29T15:35:00.916Z,12.3
2022-09-29T15:36:00.945Z,12.5
2022-09-29T15:39:00.913Z,12.5
2022-09-29T15:40:00.903Z,12.3
2022-09-29T15:41:00.893Z,12.5
2022-09-29T15:42:00.900Z,12.4
2022-09-29T15:43:00.918Z,12.3
2022-09-29T15:46:01.022Z,12.4
2022-09-29T15:48:00.889Z,12.3
2022-09-29T15:49:00.908Z,12.4
2022-09-29T15:50:00.944Z,12.2
2022-09-29T15:53:00.923Z,12.2
2022-09-29T15:55:00.907Z,12.1
2022-09-29T15:56:00.904Z,12.2
2022-09-29T15:57:00.957Z,12.1
2022-09-29T15:59:00.932Z,12.2
2022-09-29T16:05:00.906Z,12.1
2022-09-29T16:06:00.941Z,12.2
2022-09-29T16:08:00.949Z,12.1
2022-09-29T16:10:00.923Z,12.2
2022-09-29T16:11:00.970Z,12
2022-09-29T16:13:00.898Z,11.9
2022-09-29T16:14:00.921Z,12
2022-09-29T16:15:00.937Z,12.1
2022-09-29T16:16:00.971Z,12
2022-09-29T16:19:00.937Z,11.7
2022-09-29T16:22:00.926Z,11.8
2022-09-29T16:23:00.931Z,11.7
2022-09-29T16:24:00.956Z,11.8
2022-09-29T16:25:00.935Z,11.6
2022-09-29T16:30:00.976Z,11.7
2022-09-29T16:32:00.999Z,11.6
2022-09-29T16:33:00.972Z,11.7
2022-09-29T16:37:00.927Z,11.5
2022-09-29T16:47:00.920Z,11.3
2022-09-29T16:48:00.895Z,11.2
2022-09-29T16:49:00.899Z,11.4
2022-09-29T16:50:00.902Z,11.5
2022-09-29T16:52:00.962Z,11.4
2022-09-29T16:54:00.922Z,11.5
2022-09-29T16:56:00.907Z,11.3
2022-09-29T16:57:00.903Z,11.4
2022-09-29T16:58:00.916Z,11.3
2022-09-29T17:00:00.936Z,11.2
2022-09-29T17:04:00.926Z,11.2
2022-09-29T17:07:00.897Z,11
2022-09-29T17:08:00.900Z,11.3
2022-09-29T17:09:00.920Z,11.1
2022-09-29T17:12:00.909Z,10.9
2022-09-29T17:13:00.942Z,11
2022-09-29T17:15:00.906Z,10.8
2022-09-29T17:16:01.086Z,10.9
2022-09-29T17:18:00.905Z,10.9
2022-09-29T17:22:00.925Z,10.7
2022-09-29T17:24:00.895Z,10.6
2022-09-29T17:30:00.949Z,10.8
2022-09-29T17:31:01.001Z,10.7
2022-09-29T17:35:00.938Z,10.7
2022-09-29T17:37:00.924Z,10.7
2022-09-29T17:38:00.895Z,10.6
2022-09-29T17:40:00.917Z,10.5
2022-09-29T17:41:00.940Z,10.7
2022-09-29T17:43:00.928Z,10.5
2022-09-29T17:49:00.929Z,10.4
2022-09-29T17:50:00.915Z,10.5
2022-09-29T17:51:00.909Z,10.4
2022-09-29T17:54:00.931Z,10.5
2022-09-29T17:55:00.931Z,10.6
2022-09-29T17:56:00.919Z,10.5
2022-09-29T17:58:01.085Z,10.4
2022-09-29T18:00:00.924Z,10.5
2022-09-29T18:01:00.892Z,10.4
2022-09-29T18:02:01.000Z,10.6
2022-09-29T18:05:00.913Z,10.5
2022-09-29T18:08:00.917Z,10.4
2022-09-29T18:12:00.915Z,10.4
2022-09-29T18:15:00.928Z,10.3
2022-09-29T18:17:00.924Z,10.4
2022-09-29T18:18:00.932Z,10.3
2022-09-29T18:19:01.003Z,10.4
2022-09-29T18:21:00.896Z,10.3
2022-09-29T18:22:00.900Z,10.4
2022-09-29T18:23:00.971Z,10.5
2022-09-29T18:24:00.923Z,10.4
2022-09-29T18:26:01.004Z,10.5
2022-09-29T18:29:00.945Z,10.5
2022-09-29T18:31:00.961Z,10.4
2022-09-29T18:33:00.952Z,10.3
2022-09-29T18:39:00.922Z,10.3
2022-09-29T18:40:00.900Z,10.2
2022-09-29T18:42:00.949Z,10.3
2022-09-29T18:48:00.961Z,10.1
2022-09-29T18:50:00.948Z,10.3
2022-09-29T18:51:00.931Z,10.2
2022-09-29T18:52:00.939Z,10.1
2022-09-29T18:55:00.935Z,10.1
2022-09-29T18:57:00.959Z,10.2
2022-09-29T19:01:00.991Z,10
2022-09-29T19:03:00.959Z,10.1
2022-09-29T19:04:00.925Z,10
2022-09-29T19:06:00.956Z,10.1
2022-09-29T19:09:00.987Z,10.1
2022-09-29T19:10:00.976Z,9.9
2022-09-29T19:14:00.950Z,10
2022-09-29T19:15:00.955Z,9.8
2022-09-29T19:19:00.970Z,9.8
2022-09-29T19:23:00.997Z,9.9
2022-09-29T19:28:00.943Z,9.9
2022-09-29T19:29:00.914Z,9.8
2022-09-29T19:31:01.055Z,9.7
2022-09-29T19:33:00.936Z,9.8
2022-09-29T19:34:00.932Z,9.9
2022-09-29T19:35:00.944Z,9.8
2022-09-29T19:38:00.968Z,9.7
2022-09-29T19:39:00.967Z,9.8
2022-09-29T19:41:00.939Z,9.7
2022-09-29T19:44:00.941Z,9.8
2022-09-29T19:45:00.961Z,9.7
2022-09-29T19:48:00.990Z,9.6
2022-09-29T19:50:00.952Z,9.6
2022-09-29T19:55:01.017Z,9.5
2022-09-29T19:57:00.967Z,9.5
2022-09-29T19:59:00.940Z,9.7
2022-09-29T20:00:01.036Z,9.6
2022-09-29T20:02:00.940Z,9.5
2022-09-29T20:03:00.947Z,9.7
2022-09-29T20:04:00.970Z,9.5
2022-09-29T20:06:00.936Z,9.5
2022-09-29T20:09:00.962Z,9.4
2022-09-29T20:11:01.021Z,9.5
2022-09-29T20:19:01.010Z,9.5
2022-09-29T20:20:00.972Z,9.4
2022-09-29T20:23:00.918Z,9.3
2022-09-29T20:25:00.902Z,9.2
2022-09-29T20:28:00.909Z,9.3
2022-09-29T20:29:00.977Z,9.4
2022-09-29T20:32:00.952Z,9.3
2022-09-29T20:33:00.937Z,9.2
2022-09-29T20:35:00.912Z,9.3
2022-09-29T20:37:00.946Z,9.2
2022-09-29T20:40:00.895Z,9
2022-09-29T20:41:00.904Z,9.1
2022-09-29T20:44:00.910Z,9
2022-09-29T20:45:00.912Z,9.1
2022-09-29T20:48:00.934Z,9
2022-09-29T20:52:00.905Z,9.1
2022-09-29T20:54:00.923Z,9
2022-09-29T20:56:00.911Z,8.9
2022-09-29T20:57:00.906Z,9
2022-09-29T21:00:00.913Z,9.1
2022-09-29T21:01:00.920Z,9
2022-09-29T21:02:01.123Z,8.9
2022-09-29T21:05:00.937Z,9
2022-09-29T21:06:00.908Z,9.1
2022-09-29T21:07:00.950Z,9
2022-09-29T21:11:00.920Z,9
2022-09-29T21:12:00.944Z,9.1
2022-09-29T21:14:01.011Z,9
2022-09-29T21:15:00.922Z,9.1
2022-09-29T21:16:00.917Z,9
2022-09-29T21:17:00.983Z,9.1
2022-09-29T21:21:00.964Z,9.2
2022-09-29T21:24:00.930Z,9.1
2022-09-29T21:25:00.913Z,9
2022-09-29T21:26:00.958Z,9.2
2022-09-29T21:31:00.968Z,9
2022-09-29T21:33:00.904Z,9.1
2022-09-29T21:34:00.969Z,9
2022-09-29T21:36:00.901Z,9
2022-09-29T21:38:00.965Z,9.1
2022-09-29T21:40:00.920Z,9
2022-09-29T21:41:01.009Z,9.1
2022-09-29T21:44:00.915Z,9
2022-09-29T21:50:00.920Z,8.9
2022-09-29T21:53:00.927Z,9
2022-09-29T21:55:00.907Z,9
2022-09-29T22:01:00.906Z,8.9
2022-09-29T22:02:01.024Z,9
2022-09-29T22:07:00.991Z,9.1
2022-09-29T22:11:00.928Z,8.9
2022-09-29T22:12:00.959Z,9
2022-09-29T22:14:00.949Z,8.9
2022-09-29T22:16:00.909Z,8.9
2022-09-29T22:20:00.898Z,9
2022-09-29T22:22:00.925Z,8.9
2022-09-29T22:23:00.953Z,9
2022-09-29T22:25:00.901Z,8.9
2022-09-29T22:31:00.916Z,9
2022-09-29T22:32:00.917Z,8.9
2022-09-29T22:35:00.925Z,9
2022-09-29T22:36:00.933Z,8.9
2022-09-29T22:37:01.003Z,9
2022-09-29T22:39:00.939Z,8.9
2022-09-29T22:41:00.919Z,8.9
2022-09-29T22:42:00.928Z,8.8
2022-09-29T22:43:00.904Z,8.9
2022-09-29T22:45:00.908Z,8.8
2022-09-29T22:46:00.921Z,8.9
2022-09-29T22:48:00.908Z,8.8
2022-09-29T22:49:00.927Z,8.9
2022-09-29T22:50:00.935Z,8.8
2022-09-29T22:51:00.966Z,8.9
2022-09-29T22:53:00.888Z,8.9
2022-09-29T22:54:00.903Z,8.6
2022-09-29T22:55:00.953Z,8.9
2022-09-29T22:57:00.903Z,8.9
2022-09-29T22:58:00.944Z,8.6
2022-09-29T22:59:00.939Z,8.7
2022-09-29T23:01:00.883Z,8.7
2022-09-29T23:02:00.998Z,8.8
2022-09-29T23:05:00.926Z,8.7
2022-09-29T23:07:00.933Z,8.7
2022-09-29T23:09:00.973Z,8.8
2022-09-29T23:12:00.966Z,8.8
2022-09-29T23:14:00.933Z,8.6
2022-09-29T23:15:00.936Z,8.8
2022-09-29T23:20:00.957Z,8.7
2022-09-29T23:24:00.919Z,8.6
2022-09-29T23:26:00.941Z,8.7
2022-09-29T23:27:00.957Z,8.6
2022-09-29T23:30:00.983Z,8.6
2022-09-29T23:32:00.976Z,8.5
2022-09-29T23:33:00.955Z,8.6
2022-09-29T23:38:00.914Z,8.5
2022-09-29T23:39:00.990Z,8.6
2022-09-29T23:41:00.899Z,8.5
2022-09-29T23:44:00.964Z,8.5
2022-09-29T23:47:01.021Z,8.5
2022-09-29T23:48:00.905Z,8.6
2022-09-29T23:49:00.916Z,8.5
2022-09-29T23:50:00.996Z,8.7
2022-09-29T23:52:00.897Z,8.6
2022-09-29T23:53:00.913Z,8.7
2022-09-29T23:55:00.966Z,8.6
2022-09-29T23:57:00.912Z,8.5
